sensor_id;sensor_type;location;lat;lon;timestamp;temperature;humidity
28336;DHT22;15592;53.656;7.276;2023-10-08T00:01:03;11.80;99.90
28336;DHT22;15592;53.656;7.276;2023-10-08T00:03:29;11.80;99.90
28336;DHT22;15592;53.656;7.276;2023-10-08T00:05:55;11.80;99.90
28336;DHT22;15592;53.656;7.276;2023-10-08T00:08:21;11.70;99.90
28336;DHT22;15592;53.656;7.276;2023-10-08T00:10:47;11.70;99.90
28336;DHT22;15592;53.656;7.276;2023-10-08T00:13:14;11.70;99.90
28336;DHT22;15592;53.656;7.276;2023-10-08T00:15:43;11.60;99.90
28336;DHT22;15592;53.656;7.276;2023-10-08T00:18:20;11.50;99.90
28336;DHT22;15592;53.656;7.276;2023-10-08T00:20:47;11.50;99.90
28336;DHT22;15592;53.656;7.276;2023-10-08T00:23:42;11.50;99.90
28336;DHT22;15592;53.656;7.276;2023-10-08T00:26:09;11.50;99.90
28336;DHT22;15592;53.656;7.276;2023-10-08T00:28:34;11.50;99.90
28336;DHT22;15592;53.656;7.276;2023-10-08T00:31:03;11.50;99.90
28336;DHT22;15592;53.656;7.276;2023-10-08T00:33:38;11.50;99.90
28336;DHT22;15592;53.656;7.276;2023-10-08T00:36:04;11.50;99.90
28336;DHT22;15592;53.656;7.276;2023-10-08T00:38:46;11.40;99.90
28336;DHT22;15592;53.656;7.276;2023-10-08T00:41:15;11.40;99.90
28336;DHT22;15592;53.656;7.276;2023-10-08T00:43:41;11.40;99.90
28336;DHT22;15592;53.656;7.276;2023-10-08T00:46:08;11.30;99.90
28336;DHT22;15592;53.656;7.276;2023-10-08T00:48:56;11.30;99.90
28336;DHT22;15592;53.656;7.276;2023-10-08T00:51:27;11.30;99.90
28336;DHT22;15592;53.656;7.276;2023-10-08T00:54:01;11.20;99.90
28336;DHT22;15592;53.656;7.276;2023-10-08T00:56:35;11.30;99.90
28336;DHT22;15592;53.656;7.276;2023-10-08T01:42:08;11.30;99.90
28336;DHT22;15592;53.656;7.276;2023-10-08T01:47:13;11.10;99.90
28336;DHT22;15592;53.656;7.276;2023-10-08T01:49:41;11.10;99.90
28336;DHT22;15592;53.656;7.276;2023-10-08T01:52:09;11.10;99.90
28336;DHT22;15592;53.656;7.276;2023-10-08T01:54:43;11.10;99.90
28336;DHT22;15592;53.656;7.276;2023-10-08T01:57:09;11.10;99.90
28336;DHT22;15592;53.656;7.276;2023-10-08T01:59:35;11.10;99.90
28336;DHT22;15592;53.656;7.276;2023-10-08T02:02:03;11.20;99.90
28336;DHT22;15592;53.656;7.276;2023-10-08T02:04:32;11.10;99.90
28336;DHT22;15592;53.656;7.276;2023-10-08T02:06:59;11.20;99.90
28336;DHT22;15592;53.656;7.276;2023-10-08T02:09:25;11.10;99.90
28336;DHT22;15592;53.656;7.276;2023-10-08T02:11:52;11.20;99.90
28336;DHT22;15592;53.656;7.276;2023-10-08T02:14:19;11.20;99.90
28336;DHT22;15592;53.656;7.276;2023-10-08T02:16:49;11.10;99.90
28336;DHT22;15592;53.656;7.276;2023-10-08T02:19:20;11.10;99.90
28336;DHT22;15592;53.656;7.276;2023-10-08T02:21:56;11.10;99.90
28336;DHT22;15592;53.656;7.276;2023-10-08T02:24:24;11.10;99.90
28336;DHT22;15592;53.656;7.276;2023-10-08T02:26:51;11.10;99.90
28336;DHT22;15592;53.656;7.276;2023-10-08T02:31:43;11.20;99.90
28336;DHT22;15592;53.656;7.276;2023-10-08T02:34:09;11.20;99.90
28336;DHT22;15592;53.656;7.276;2023-10-08T02:36:36;11.30;99.90
28336;DHT22;15592;53.656;7.276;2023-10-08T02:39:06;11.20;99.90
28336;DHT22;15592;53.656;7.276;2023-10-08T02:41:40;11.20;99.90
28336;DHT22;15592;53.656;7.276;2023-10-08T02:44:07;11.30;99.90
28336;DHT22;15592;53.656;7.276;2023-10-08T02:46:41;11.20;99.90
28336;DHT22;15592;53.656;7.276;2023-10-08T02:49:11;11.20;99.90
28336;DHT22;15592;53.656;7.276;2023-10-08T02:51:40;11.30;99.90
28336;DHT22;15592;53.656;7.276;2023-10-08T02:54:07;11.30;99.90
28336;DHT22;15592;53.656;7.276;2023-10-08T02:56:42;11.30;99.90
28336;DHT22;15592;53.656;7.276;2023-10-08T02:59:10;11.40;99.90
28336;DHT22;15592;53.656;7.276;2023-10-08T03:01:38;11.30;99.90
28336;DHT22;15592;53.656;7.276;2023-10-08T03:04:07;11.40;99.90
28336;DHT22;15592;53.656;7.276;2023-10-08T03:06:43;11.40;99.90
28336;DHT22;15592;53.656;7.276;2023-10-08T03:09:08;11.50;99.90
28336;DHT22;15592;53.656;7.276;2023-10-08T03:11:34;11.60;99.90
28336;DHT22;15592;53.656;7.276;2023-10-08T03:14:02;11.70;99.90
28336;DHT22;15592;53.656;7.276;2023-10-08T03:19:01;11.90;99.90
28336;DHT22;15592;53.656;7.276;2023-10-08T03:21:26;12.00;99.90
28336;DHT22;15592;53.656;7.276;2023-10-08T03:24:04;12.10;99.90
28336;DHT22;15592;53.656;7.276;2023-10-08T03:26:38;12.20;99.90
28336;DHT22;15592;53.656;7.276;2023-10-08T03:29:05;12.20;99.90
28336;DHT22;15592;53.656;7.276;2023-10-08T03:31:41;12.30;99.90
28336;DHT22;15592;53.656;7.276;2023-10-08T03:34:13;12.30;99.90
28336;DHT22;15592;53.656;7.276;2023-10-08T03:36:41;12.30;99.90
28336;DHT22;15592;53.656;7.276;2023-10-08T03:39:14;12.40;99.90
28336;DHT22;15592;53.656;7.276;2023-10-08T03:41:43;12.40;99.90
28336;DHT22;15592;53.656;7.276;2023-10-08T03:44:23;12.50;99.90
28336;DHT22;15592;53.656;7.276;2023-10-08T03:46:50;12.50;99.90
28336;DHT22;15592;53.656;7.276;2023-10-08T03:49:18;12.50;99.90
28336;DHT22;15592;53.656;7.276;2023-10-08T03:51:46;12.50;99.90
28336;DHT22;15592;53.656;7.276;2023-10-08T03:54:12;12.60;99.90
28336;DHT22;15592;53.656;7.276;2023-10-08T03:56:40;12.60;99.90
28336;DHT22;15592;53.656;7.276;2023-10-08T03:59:17;12.80;99.90
28336;DHT22;15592;53.656;7.276;2023-10-08T04:01:46;12.80;99.90
28336;DHT22;15592;53.656;7.276;2023-10-08T04:04:15;12.90;99.90
28336;DHT22;15592;53.656;7.276;2023-10-08T04:06:41;12.90;99.90
28336;DHT22;15592;53.656;7.276;2023-10-08T04:09:19;12.90;99.90
28336;DHT22;15592;53.656;7.276;2023-10-08T04:11:45;12.90;99.90
28336;DHT22;15592;53.656;7.276;2023-10-08T04:14:14;12.90;99.90
28336;DHT22;15592;53.656;7.276;2023-10-08T04:16:42;12.90;99.90
28336;DHT22;15592;53.656;7.276;2023-10-08T04:19:08;12.90;99.90
28336;DHT22;15592;53.656;7.276;2023-10-08T04:21:34;12.90;99.90
28336;DHT22;15592;53.656;7.276;2023-10-08T04:24:00;12.80;99.90
28336;DHT22;15592;53.656;7.276;2023-10-08T04:26:30;12.90;99.90
28336;DHT22;15592;53.656;7.276;2023-10-08T04:28:58;13.00;99.90
28336;DHT22;15592;53.656;7.276;2023-10-08T04:31:24;12.90;99.90
28336;DHT22;15592;53.656;7.276;2023-10-08T04:33:54;13.00;99.90
28336;DHT22;15592;53.656;7.276;2023-10-08T04:36:20;13.00;99.90
28336;DHT22;15592;53.656;7.276;2023-10-08T04:38:46;13.00;99.90
28336;DHT22;15592;53.656;7.276;2023-10-08T04:41:16;13.10;99.90
28336;DHT22;15592;53.656;7.276;2023-10-08T04:43:44;13.10;99.90
28336;DHT22;15592;53.656;7.276;2023-10-08T04:46:10;13.00;99.90
28336;DHT22;15592;53.656;7.276;2023-10-08T04:48:50;13.00;99.90
28336;DHT22;15592;53.656;7.276;2023-10-08T04:51:17;13.00;99.90
28336;DHT22;15592;53.656;7.276;2023-10-08T04:53:44;13.00;99.90
28336;DHT22;15592;53.656;7.276;2023-10-08T04:56:14;13.00;99.90
28336;DHT22;15592;53.656;7.276;2023-10-08T04:58:44;13.00;99.90
28336;DHT22;15592;53.656;7.276;2023-10-08T05:03:50;13.10;99.90
28336;DHT22;15592;53.656;7.276;2023-10-08T05:06:29;13.10;99.90
28336;DHT22;15592;53.656;7.276;2023-10-08T05:11:36;13.20;99.90
28336;DHT22;15592;53.656;7.276;2023-10-08T05:14:21;13.10;99.90
28336;DHT22;15592;53.656;7.276;2023-10-08T05:17:02;13.10;99.90
28336;DHT22;15592;53.656;7.276;2023-10-08T05:19:38;13.10;99.90
28336;DHT22;15592;53.656;7.276;2023-10-08T05:22:08;13.10;99.90
28336;DHT22;15592;53.656;7.276;2023-10-08T05:25:03;13.00;99.90
28336;DHT22;15592;53.656;7.276;2023-10-08T05:27:44;13.00;99.90
28336;DHT22;15592;53.656;7.276;2023-10-08T05:30:13;13.10;99.90
28336;DHT22;15592;53.656;7.276;2023-10-08T05:32:54;13.00;99.90
28336;DHT22;15592;53.656;7.276;2023-10-08T05:35:53;13.00;99.90
28336;DHT22;15592;53.656;7.276;2023-10-08T05:38:35;13.00;99.90
28336;DHT22;15592;53.656;7.276;2023-10-08T05:41:00;13.00;99.90
28336;DHT22;15592;53.656;7.276;2023-10-08T05:43:31;13.00;99.90
28336;DHT22;15592;53.656;7.276;2023-10-08T05:46:07;13.00;99.90
28336;DHT22;15592;53.656;7.276;2023-10-08T05:49:00;13.00;99.90
28336;DHT22;15592;53.656;7.276;2023-10-08T05:51:35;13.00;99.90
28336;DHT22;15592;53.656;7.276;2023-10-08T05:54:14;13.00;99.90
28336;DHT22;15592;53.656;7.276;2023-10-08T05:56:59;13.00;99.90
28336;DHT22;15592;53.656;7.276;2023-10-08T05:59:38;13.00;99.90
28336;DHT22;15592;53.656;7.276;2023-10-08T06:02:32;13.00;99.90
28336;DHT22;15592;53.656;7.276;2023-10-08T06:05:07;12.90;99.90
28336;DHT22;15592;53.656;7.276;2023-10-08T06:07:43;12.90;99.90
28336;DHT22;15592;53.656;7.276;2023-10-08T06:10:28;12.90;99.90
28336;DHT22;15592;53.656;7.276;2023-10-08T06:18:17;12.80;99.90
28336;DHT22;15592;53.656;7.276;2023-10-08T06:20:46;12.80;99.90
28336;DHT22;15592;53.656;7.276;2023-10-08T06:23:13;12.80;99.90
28336;DHT22;15592;53.656;7.276;2023-10-08T06:25:41;12.90;99.90
28336;DHT22;15592;53.656;7.276;2023-10-08T06:28:17;12.90;99.90
28336;DHT22;15592;53.656;7.276;2023-10-08T06:30:51;12.90;99.90
28336;DHT22;15592;53.656;7.276;2023-10-08T06:33:21;12.90;99.90
28336;DHT22;15592;53.656;7.276;2023-10-08T06:35:48;12.90;99.90
28336;DHT22;15592;53.656;7.276;2023-10-08T06:38:40;12.90;99.90
28336;DHT22;15592;53.656;7.276;2023-10-08T06:41:11;12.90;99.90
28336;DHT22;15592;53.656;7.276;2023-10-08T06:43:40;12.90;99.90
28336;DHT22;15592;53.656;7.276;2023-10-08T06:46:12;12.90;99.90
28336;DHT22;15592;53.656;7.276;2023-10-08T06:48:38;12.90;99.90
28336;DHT22;15592;53.656;7.276;2023-10-08T06:51:09;12.90;99.90
28336;DHT22;15592;53.656;7.276;2023-10-08T06:53:42;12.90;99.90
28336;DHT22;15592;53.656;7.276;2023-10-08T06:56:14;13.00;99.90
28336;DHT22;15592;53.656;7.276;2023-10-08T06:58:43;13.00;99.90
28336;DHT22;15592;53.656;7.276;2023-10-08T07:01:19;13.10;99.90
28336;DHT22;15592;53.656;7.276;2023-10-08T07:03:50;13.10;99.90
28336;DHT22;15592;53.656;7.276;2023-10-08T07:06:17;13.20;99.90
28336;DHT22;15592;53.656;7.276;2023-10-08T07:08:56;13.20;99.90
28336;DHT22;15592;53.656;7.276;2023-10-08T07:11:25;13.20;99.90
28336;DHT22;15592;53.656;7.276;2023-10-08T07:13:52;13.30;99.90
28336;DHT22;15592;53.656;7.276;2023-10-08T07:16:18;13.30;99.90
28336;DHT22;15592;53.656;7.276;2023-10-08T07:18:44;13.30;99.90
28336;DHT22;15592;53.656;7.276;2023-10-08T07:21:26;13.20;99.90
28336;DHT22;15592;53.656;7.276;2023-10-08T07:24:10;13.20;99.90
28336;DHT22;15592;53.656;7.276;2023-10-08T07:26:41;13.30;99.90
28336;DHT22;15592;53.656;7.276;2023-10-08T07:29:15;13.30;99.90
28336;DHT22;15592;53.656;7.276;2023-10-08T07:31:43;13.20;99.90
28336;DHT22;15592;53.656;7.276;2023-10-08T07:34:17;13.20;99.90
28336;DHT22;15592;53.656;7.276;2023-10-08T07:36:49;13.20;99.90
28336;DHT22;15592;53.656;7.276;2023-10-08T07:39:17;13.20;99.90
28336;DHT22;15592;53.656;7.276;2023-10-08T07:41:51;13.20;99.90
28336;DHT22;15592;53.656;7.276;2023-10-08T07:44:17;13.30;99.90
28336;DHT22;15592;53.656;7.276;2023-10-08T07:46:50;13.30;99.90
28336;DHT22;15592;53.656;7.276;2023-10-08T07:49:17;13.30;99.90
28336;DHT22;15592;53.656;7.276;2023-10-08T07:51:43;13.30;99.90
28336;DHT22;15592;53.656;7.276;2023-10-08T07:56:45;13.40;99.90
28336;DHT22;15592;53.656;7.276;2023-10-08T07:59:11;13.40;99.90
28336;DHT22;15592;53.656;7.276;2023-10-08T08:01:40;13.50;99.90
28336;DHT22;15592;53.656;7.276;2023-10-08T08:04:11;13.50;99.90
28336;DHT22;15592;53.656;7.276;2023-10-08T08:06:40;13.50;99.90
28336;DHT22;15592;53.656;7.276;2023-10-08T08:09:05;13.50;99.90
28336;DHT22;15592;53.656;7.276;2023-10-08T08:11:43;13.50;99.90
28336;DHT22;15592;53.656;7.276;2023-10-08T08:14:11;13.60;99.90
28336;DHT22;15592;53.656;7.276;2023-10-08T08:16:37;13.60;99.90
28336;DHT22;15592;53.656;7.276;2023-10-08T08:19:03;13.60;99.90
28336;DHT22;15592;53.656;7.276;2023-10-08T08:21:29;13.70;99.90
28336;DHT22;15592;53.656;7.276;2023-10-08T08:23:56;13.70;99.90
28336;DHT22;15592;53.656;7.276;2023-10-08T08:26:30;13.80;99.90
28336;DHT22;15592;53.656;7.276;2023-10-08T08:28:59;13.80;99.90
28336;DHT22;15592;53.656;7.276;2023-10-08T08:31:26;13.90;99.90
28336;DHT22;15592;53.656;7.276;2023-10-08T08:33:55;13.90;99.90
28336;DHT22;15592;53.656;7.276;2023-10-08T08:36:31;13.90;99.90
28336;DHT22;15592;53.656;7.276;2023-10-08T08:38:57;13.90;99.90
28336;DHT22;15592;53.656;7.276;2023-10-08T08:41:23;13.90;99.90
28336;DHT22;15592;53.656;7.276;2023-10-08T08:43:54;14.00;99.90
28336;DHT22;15592;53.656;7.276;2023-10-08T08:46:37;14.00;99.90
28336;DHT22;15592;53.656;7.276;2023-10-08T08:49:11;14.00;99.90
28336;DHT22;15592;53.656;7.276;2023-10-08T08:51:38;14.00;99.90
28336;DHT22;15592;53.656;7.276;2023-10-08T08:54:05;14.10;99.90
28336;DHT22;15592;53.656;7.276;2023-10-08T08:56:35;14.10;99.90
28336;DHT22;15592;53.656;7.276;2023-10-08T08:59:02;14.10;99.90
28336;DHT22;15592;53.656;7.276;2023-10-08T09:01:30;14.20;99.90
28336;DHT22;15592;53.656;7.276;2023-10-08T09:04:01;14.20;99.90
28336;DHT22;15592;53.656;7.276;2023-10-08T09:06:32;14.30;99.90
28336;DHT22;15592;53.656;7.276;2023-10-08T09:09:00;14.30;99.90
28336;DHT22;15592;53.656;7.276;2023-10-08T09:11:40;14.40;99.90
28336;DHT22;15592;53.656;7.276;2023-10-08T09:14:09;14.40;99.90
28336;DHT22;15592;53.656;7.276;2023-10-08T09:16:36;14.40;99.90
28336;DHT22;15592;53.656;7.276;2023-10-08T09:19:02;14.40;99.90
28336;DHT22;15592;53.656;7.276;2023-10-08T09:21:28;14.40;99.90
28336;DHT22;15592;53.656;7.276;2023-10-08T09:23:55;14.40;99.90
28336;DHT22;15592;53.656;7.276;2023-10-08T09:26:25;14.40;99.90
28336;DHT22;15592;53.656;7.276;2023-10-08T09:28:51;14.40;99.90
28336;DHT22;15592;53.656;7.276;2023-10-08T09:31:18;14.40;99.90
28336;DHT22;15592;53.656;7.276;2023-10-08T09:33:54;14.40;99.90
28336;DHT22;15592;53.656;7.276;2023-10-08T09:36:22;14.40;99.90
28336;DHT22;15592;53.656;7.276;2023-10-08T09:39:02;14.40;99.90
28336;DHT22;15592;53.656;7.276;2023-10-08T09:41:32;14.40;99.90
28336;DHT22;15592;53.656;7.276;2023-10-08T09:43:58;14.50;99.90
28336;DHT22;15592;53.656;7.276;2023-10-08T09:46:31;14.50;99.90
28336;DHT22;15592;53.656;7.276;2023-10-08T09:49:00;14.50;99.90
28336;DHT22;15592;53.656;7.276;2023-10-08T09:51:29;14.40;99.90
28336;DHT22;15592;53.656;7.276;2023-10-08T09:56:41;14.40;99.90
28336;DHT22;15592;53.656;7.276;2023-10-08T09:59:09;14.30;99.90
28336;DHT22;15592;53.656;7.276;2023-10-08T10:01:37;14.40;99.90
28336;DHT22;15592;53.656;7.276;2023-10-08T10:04:09;14.40;99.90
28336;DHT22;15592;53.656;7.276;2023-10-08T10:06:35;14.50;99.90
28336;DHT22;15592;53.656;7.276;2023-10-08T10:09:01;14.60;99.90
28336;DHT22;15592;53.656;7.276;2023-10-08T10:11:29;14.60;99.90
28336;DHT22;15592;53.656;7.276;2023-10-08T10:14:00;14.70;99.90
28336;DHT22;15592;53.656;7.276;2023-10-08T10:16:26;14.70;99.90
28336;DHT22;15592;53.656;7.276;2023-10-08T10:18:56;14.70;99.90
28336;DHT22;15592;53.656;7.276;2023-10-08T10:21:29;14.80;99.90
28336;DHT22;15592;53.656;7.276;2023-10-08T10:23:55;14.80;99.90
28336;DHT22;15592;53.656;7.276;2023-10-08T10:26:32;14.80;99.90
28336;DHT22;15592;53.656;7.276;2023-10-08T10:34:23;14.90;99.90
28336;DHT22;15592;53.656;7.276;2023-10-08T10:36:53;15.00;99.90
28336;DHT22;15592;53.656;7.276;2023-10-08T10:39:26;15.00;99.90
28336;DHT22;15592;53.656;7.276;2023-10-08T10:41:56;15.10;99.90
28336;DHT22;15592;53.656;7.276;2023-10-08T10:44:25;15.20;99.90
28336;DHT22;15592;53.656;7.276;2023-10-08T10:46:51;15.20;99.90
28336;DHT22;15592;53.656;7.276;2023-10-08T10:49:21;15.20;99.90
28336;DHT22;15592;53.656;7.276;2023-10-08T10:52:02;15.30;99.90
28336;DHT22;15592;53.656;7.276;2023-10-08T10:54:30;15.40;99.90
28336;DHT22;15592;53.656;7.276;2023-10-08T10:57:06;15.50;99.90
28336;DHT22;15592;53.656;7.276;2023-10-08T10:59:42;15.60;99.90
28336;DHT22;15592;53.656;7.276;2023-10-08T11:02:19;15.70;99.90
28336;DHT22;15592;53.656;7.276;2023-10-08T11:04:57;15.70;99.90
28336;DHT22;15592;53.656;7.276;2023-10-08T11:07:33;15.60;99.90
28336;DHT22;15592;53.656;7.276;2023-10-08T11:10:00;15.50;99.90
28336;DHT22;15592;53.656;7.276;2023-10-08T11:12:26;15.50;99.90
28336;DHT22;15592;53.656;7.276;2023-10-08T11:15:10;15.40;99.90
28336;DHT22;15592;53.656;7.276;2023-10-08T11:17:41;15.40;99.90
28336;DHT22;15592;53.656;7.276;2023-10-08T11:20:26;15.30;99.90
28336;DHT22;15592;53.656;7.276;2023-10-08T11:22:52;15.30;99.90
28336;DHT22;15592;53.656;7.276;2023-10-08T11:25:25;15.30;99.90
28336;DHT22;15592;53.656;7.276;2023-10-08T11:27:56;15.30;99.90
28336;DHT22;15592;53.656;7.276;2023-10-08T11:30:34;15.40;99.90
28336;DHT22;15592;53.656;7.276;2023-10-08T11:33:01;15.40;99.90
28336;DHT22;15592;53.656;7.276;2023-10-08T11:35:26;15.50;99.90
28336;DHT22;15592;53.656;7.276;2023-10-08T11:38:00;15.50;99.90
28336;DHT22;15592;53.656;7.276;2023-10-08T11:40:28;15.50;99.90
28336;DHT22;15592;53.656;7.276;2023-10-08T11:42:57;15.50;99.90
28336;DHT22;15592;53.656;7.276;2023-10-08T11:45:25;15.60;99.90
28336;DHT22;15592;53.656;7.276;2023-10-08T11:48:04;15.70;99.90
28336;DHT22;15592;53.656;7.276;2023-10-08T11:50:37;15.70;99.90
28336;DHT22;15592;53.656;7.276;2023-10-08T11:53:04;15.80;99.90
28336;DHT22;15592;53.656;7.276;2023-10-08T11:55:35;15.90;99.90
28336;DHT22;15592;53.656;7.276;2023-10-08T11:58:06;15.90;99.90
28336;DHT22;15592;53.656;7.276;2023-10-08T12:00:43;16.00;99.90
28336;DHT22;15592;53.656;7.276;2023-10-08T12:03:17;16.00;99.90
28336;DHT22;15592;53.656;7.276;2023-10-08T12:05:47;16.00;99.90
28336;DHT22;15592;53.656;7.276;2023-10-08T12:08:24;15.90;99.90
28336;DHT22;15592;53.656;7.276;2023-10-08T12:10:53;15.90;99.90
28336;DHT22;15592;53.656;7.276;2023-10-08T12:13:22;15.80;99.90
28336;DHT22;15592;53.656;7.276;2023-10-08T12:15:53;15.70;99.90
28336;DHT22;15592;53.656;7.276;2023-10-08T12:18:34;15.70;99.90
28336;DHT22;15592;53.656;7.276;2023-10-08T12:21:08;15.60;99.90
28336;DHT22;15592;53.656;7.276;2023-10-08T12:23:40;15.60;99.90
28336;DHT22;15592;53.656;7.276;2023-10-08T12:26:06;15.60;99.90
28336;DHT22;15592;53.656;7.276;2023-10-08T12:28:35;15.70;99.90
28336;DHT22;15592;53.656;7.276;2023-10-08T12:31:02;15.70;99.90
28336;DHT22;15592;53.656;7.276;2023-10-08T12:33:29;15.60;99.90
28336;DHT22;15592;53.656;7.276;2023-10-08T12:35:55;15.60;99.90
28336;DHT22;15592;53.656;7.276;2023-10-08T12:38:25;15.60;99.90
28336;DHT22;15592;53.656;7.276;2023-10-08T12:40:54;15.60;99.90
28336;DHT22;15592;53.656;7.276;2023-10-08T12:43:20;15.60;99.90
28336;DHT22;15592;53.656;7.276;2023-10-08T12:45:47;15.60;99.90
28336;DHT22;15592;53.656;7.276;2023-10-08T12:48:18;15.50;99.90
28336;DHT22;15592;53.656;7.276;2023-10-08T12:50:44;15.50;99.90
28336;DHT22;15592;53.656;7.276;2023-10-08T12:53:10;15.50;99.90
28336;DHT22;15592;53.656;7.276;2023-10-08T12:55:39;15.40;99.90
28336;DHT22;15592;53.656;7.276;2023-10-08T12:58:08;15.40;99.90
28336;DHT22;15592;53.656;7.276;2023-10-08T13:00:39;15.40;99.90
28336;DHT22;15592;53.656;7.276;2023-10-08T13:03:08;15.40;99.90
28336;DHT22;15592;53.656;7.276;2023-10-08T13:05:41;15.40;99.90
28336;DHT22;15592;53.656;7.276;2023-10-08T13:08:10;15.50;99.90
28336;DHT22;15592;53.656;7.276;2023-10-08T13:10:44;15.50;99.90
28336;DHT22;15592;53.656;7.276;2023-10-08T13:13:10;15.50;99.90
28336;DHT22;15592;53.656;7.276;2023-10-08T13:15:37;15.50;99.90
28336;DHT22;15592;53.656;7.276;2023-10-08T13:18:03;15.50;99.90
28336;DHT22;15592;53.656;7.276;2023-10-08T13:20:29;15.50;99.90
28336;DHT22;15592;53.656;7.276;2023-10-08T13:23:02;15.50;99.90
28336;DHT22;15592;53.656;7.276;2023-10-08T13:25:30;15.50;99.90
28336;DHT22;15592;53.656;7.276;2023-10-08T13:27:59;15.50;99.90
28336;DHT22;15592;53.656;7.276;2023-10-08T13:30:26;15.50;99.90
28336;DHT22;15592;53.656;7.276;2023-10-08T13:32:52;15.50;99.90
28336;DHT22;15592;53.656;7.276;2023-10-08T13:35:19;15.50;99.90
28336;DHT22;15592;53.656;7.276;2023-10-08T13:37:44;15.50;99.90
28336;DHT22;15592;53.656;7.276;2023-10-08T13:40:13;15.50;99.90
28336;DHT22;15592;53.656;7.276;2023-10-08T13:42:44;15.40;99.90
28336;DHT22;15592;53.656;7.276;2023-10-08T13:45:10;15.50;99.90
28336;DHT22;15592;53.656;7.276;2023-10-08T13:47:42;15.40;99.90
28336;DHT22;15592;53.656;7.276;2023-10-08T13:50:08;15.40;99.90
28336;DHT22;15592;53.656;7.276;2023-10-08T13:52:36;15.40;99.90
28336;DHT22;15592;53.656;7.276;2023-10-08T13:55:06;15.40;99.90
28336;DHT22;15592;53.656;7.276;2023-10-08T13:57:32;15.30;99.90
28336;DHT22;15592;53.656;7.276;2023-10-08T13:59:58;15.40;99.90
28336;DHT22;15592;53.656;7.276;2023-10-08T14:02:25;15.40;99.90
28336;DHT22;15592;53.656;7.276;2023-10-08T14:04:51;15.50;99.90
28336;DHT22;15592;53.656;7.276;2023-10-08T14:07:18;15.50;99.90
28336;DHT22;15592;53.656;7.276;2023-10-08T14:09:44;15.50;99.90
28336;DHT22;15592;53.656;7.276;2023-10-08T14:12:12;15.40;99.90
28336;DHT22;15592;53.656;7.276;2023-10-08T14:14:40;15.40;99.90
28336;DHT22;15592;53.656;7.276;2023-10-08T14:17:13;15.40;99.90
28336;DHT22;15592;53.656;7.276;2023-10-08T14:20:02;15.40;99.90
28336;DHT22;15592;53.656;7.276;2023-10-08T14:22:33;15.40;99.90
28336;DHT22;15592;53.656;7.276;2023-10-08T14:25:00;15.40;99.90
28336;DHT22;15592;53.656;7.276;2023-10-08T14:27:30;15.40;99.90
28336;DHT22;15592;53.656;7.276;2023-10-08T14:29:59;15.40;99.90
28336;DHT22;15592;53.656;7.276;2023-10-08T14:32:30;15.40;99.90
28336;DHT22;15592;53.656;7.276;2023-10-08T14:34:58;15.40;99.90
28336;DHT22;15592;53.656;7.276;2023-10-08T14:37:23;15.40;99.90
28336;DHT22;15592;53.656;7.276;2023-10-08T14:40:08;15.40;99.90
28336;DHT22;15592;53.656;7.276;2023-10-08T14:42:52;15.40;99.90
28336;DHT22;15592;53.656;7.276;2023-10-08T14:45:29;15.40;99.90
28336;DHT22;15592;53.656;7.276;2023-10-08T14:48:01;15.30;99.90
28336;DHT22;15592;53.656;7.276;2023-10-08T14:50:27;15.30;99.90
28336;DHT22;15592;53.656;7.276;2023-10-08T14:52:54;15.20;99.90
28336;DHT22;15592;53.656;7.276;2023-10-08T14:55:21;15.20;99.90
28336;DHT22;15592;53.656;7.276;2023-10-08T14:57:49;15.20;99.90
28336;DHT22;15592;53.656;7.276;2023-10-08T15:00:18;15.20;99.90
28336;DHT22;15592;53.656;7.276;2023-10-08T15:02:51;15.10;99.90
28336;DHT22;15592;53.656;7.276;2023-10-08T15:05:17;15.10;99.90
28336;DHT22;15592;53.656;7.276;2023-10-08T15:07:43;15.00;99.90
28336;DHT22;15592;53.656;7.276;2023-10-08T15:10:09;15.00;99.90
28336;DHT22;15592;53.656;7.276;2023-10-08T15:12:36;15.00;99.90
28336;DHT22;15592;53.656;7.276;2023-10-08T15:15:02;15.00;99.90
28336;DHT22;15592;53.656;7.276;2023-10-08T15:17:41;14.90;99.90
28336;DHT22;15592;53.656;7.276;2023-10-08T15:20:09;14.90;99.90
28336;DHT22;15592;53.656;7.276;2023-10-08T15:22:40;14.90;99.90
28336;DHT22;15592;53.656;7.276;2023-10-08T15:25:11;14.80;99.90
28336;DHT22;15592;53.656;7.276;2023-10-08T15:27:38;14.80;99.90
28336;DHT22;15592;53.656;7.276;2023-10-08T15:30:16;14.70;99.90
28336;DHT22;15592;53.656;7.276;2023-10-08T15:32:46;14.70;99.90
28336;DHT22;15592;53.656;7.276;2023-10-08T15:35:15;14.60;99.90
28336;DHT22;15592;53.656;7.276;2023-10-08T15:37:48;14.50;99.90
28336;DHT22;15592;53.656;7.276;2023-10-08T15:40:14;14.50;99.90
28336;DHT22;15592;53.656;7.276;2023-10-08T15:42:44;14.50;99.90
28336;DHT22;15592;53.656;7.276;2023-10-08T15:45:12;14.40;99.90
28336;DHT22;15592;53.656;7.276;2023-10-08T15:47:40;14.40;99.90
28336;DHT22;15592;53.656;7.276;2023-10-08T15:50:06;14.30;99.90
28336;DHT22;15592;53.656;7.276;2023-10-08T15:52:38;14.30;99.90
28336;DHT22;15592;53.656;7.276;2023-10-08T15:55:07;14.20;99.90
28336;DHT22;15592;53.656;7.276;2023-10-08T15:57:34;14.20;99.90
28336;DHT22;15592;53.656;7.276;2023-10-08T16:00:00;14.10;99.90
28336;DHT22;15592;53.656;7.276;2023-10-08T16:02:25;14.10;99.90
28336;DHT22;15592;53.656;7.276;2023-10-08T16:04:51;14.10;99.90
28336;DHT22;15592;53.656;7.276;2023-10-08T16:07:17;14.00;99.90
28336;DHT22;15592;53.656;7.276;2023-10-08T16:09:43;14.10;99.90
28336;DHT22;15592;53.656;7.276;2023-10-08T16:12:08;14.00;99.90
28336;DHT22;15592;53.656;7.276;2023-10-08T16:14:34;14.00;99.90
28336;DHT22;15592;53.656;7.276;2023-10-08T16:17:00;13.90;99.90
28336;DHT22;15592;53.656;7.276;2023-10-08T16:19:29;13.80;99.90
28336;DHT22;15592;53.656;7.276;2023-10-08T16:21:57;13.90;99.90
28336;DHT22;15592;53.656;7.276;2023-10-08T16:24:23;13.80;99.90
28336;DHT22;15592;53.656;7.276;2023-10-08T16:26:51;13.80;99.90
28336;DHT22;15592;53.656;7.276;2023-10-08T16:29:20;13.80;99.90
28336;DHT22;15592;53.656;7.276;2023-10-08T16:31:46;13.80;99.90
28336;DHT22;15592;53.656;7.276;2023-10-08T16:34:13;13.70;99.90
28336;DHT22;15592;53.656;7.276;2023-10-08T16:36:41;13.70;99.90
28336;DHT22;15592;53.656;7.276;2023-10-08T16:39:09;13.70;99.90
28336;DHT22;15592;53.656;7.276;2023-10-08T16:41:45;13.60;99.90
28336;DHT22;15592;53.656;7.276;2023-10-08T16:44:12;13.60;99.90
28336;DHT22;15592;53.656;7.276;2023-10-08T16:46:41;13.60;99.90
28336;DHT22;15592;53.656;7.276;2023-10-08T16:49:09;13.50;99.90
28336;DHT22;15592;53.656;7.276;2023-10-08T16:51:36;13.50;99.90
28336;DHT22;15592;53.656;7.276;2023-10-08T16:54:03;13.50;99.90
28336;DHT22;15592;53.656;7.276;2023-10-08T16:56:29;13.50;99.90
28336;DHT22;15592;53.656;7.276;2023-10-08T16:58:56;13.50;99.90
28336;DHT22;15592;53.656;7.276;2023-10-08T17:01:22;13.40;99.90